createdAt,value
2022-11-09T00:01:12.930Z,92572.16
2022-11-09T00:03:45.812Z,92571.13
2022-11-09T00:06:18.275Z,92563.34
2022-11-09T00:08:51.491Z,92574.75
2022-11-09T00:11:24.247Z,92574.50
2022-11-09T00:13:56.726Z,92579.16
2022-11-09T00:16:29.966Z,92553.75
2022-11-09T00:19:02.413Z,92575.28
2022-11-09T00:21:35.038Z,92570.34
2022-11-09T00:24:07.565Z,92575.53
2022-11-09T00:26:40.021Z,92572.66
2022-11-09T00:29:12.414Z,92579.13
2022-11-09T00:31:45.525Z,92577.06
2022-11-09T00:34:20.718Z,92582.75
2022-11-09T00:36:53.062Z,92573.94
2022-11-09T00:39:25.498Z,92570.56
2022-11-09T00:41:57.836Z,92561.25
2022-11-09T00:44:30.220Z,92568.50
2022-11-09T00:47:03.389Z,92564.59
2022-11-09T00:49:35.734Z,92576.00
2022-11-09T00:52:08.444Z,92570.28
2022-11-09T00:54:41.108Z,92568.75
2022-11-09T00:57:13.577Z,92573.41
2022-11-09T00:59:49.378Z,92574.19
2022-11-09T01:02:22.501Z,92571.59
2022-11-09T01:04:55.017Z,92565.84
2022-11-09T01:07:27.388Z,92568.91
2022-11-09T01:09:59.783Z,92562.22
2022-11-09T01:12:32.738Z,92563.75
2022-11-09T01:15:06.161Z,92565.03
2022-11-09T01:17:40.327Z,92561.91
2022-11-09T01:20:13.060Z,92572.53
2022-11-09T01:22:45.449Z,92566.03
2022-11-09T01:25:17.856Z,92559.28
2022-11-09T01:27:50.228Z,92568.13
2022-11-09T01:30:22.707Z,92562.66
2022-11-09T01:32:55.811Z,92560.56
2022-11-09T01:35:28.262Z,92563.38
2022-11-09T01:38:01.671Z,92561.59
2022-11-09T01:40:36.409Z,92542.13
2022-11-09T01:43:16.185Z,92555.88
2022-11-09T01:45:51.859Z,92553.25
2022-11-09T01:48:34.407Z,92539.78
2022-11-09T01:51:13.332Z,92548.56
2022-11-09T01:53:49.385Z,92549.88
2022-11-09T01:56:22.133Z,92554.03
2022-11-09T01:58:57.712Z,92554.75
2022-11-09T02:01:31.555Z,92549.09
2022-11-09T02:04:09.911Z,92537.91
2022-11-09T02:06:43.242Z,92553.16
2022-11-09T02:09:23.124Z,92560.44
2022-11-09T02:11:55.601Z,92557.59
2022-11-09T02:14:29.872Z,92555.22
2022-11-09T02:17:02.698Z,92561.66
2022-11-09T02:19:36.393Z,92555.19
2022-11-09T02:22:10.318Z,92562.44
2022-11-09T02:24:42.812Z,92566.09
2022-11-09T02:27:15.196Z,92559.56
2022-11-09T02:29:49.067Z,92561.91
2022-11-09T02:32:24.288Z,92557.25
2022-11-09T02:34:58.547Z,92560.88
2022-11-09T02:37:37.670Z,92558.25
2022-11-09T02:40:14.348Z,92563.19
2022-11-09T02:42:46.900Z,92559.06
2022-11-09T02:45:19.314Z,92534.91
2022-11-09T02:47:51.750Z,92558.25
2022-11-09T02:50:24.382Z,92558.25
2022-11-09T02:52:57.472Z,92563.72
2022-11-09T02:55:32.813Z,92564.22
2022-11-09T02:58:05.360Z,92563.19
2022-11-09T03:00:37.961Z,92556.22
2022-11-09T03:03:11.116Z,92560.91
2022-11-09T03:05:43.804Z,92560.41
2022-11-09T03:08:17.978Z,92562.75
2022-11-09T03:10:51.486Z,92563.00
2022-11-09T03:13:23.957Z,92570.25
2022-11-09T03:15:56.466Z,92571.25
2022-11-09T03:18:28.884Z,92567.66
2022-11-09T03:21:02.557Z,92570.25
2022-11-09T03:23:35.941Z,92566.09
2022-11-09T03:26:08.748Z,92567.59
2022-11-09T03:28:42.214Z,92565.50
2022-11-09T03:31:14.819Z,92569.94
2022-11-09T03:33:47.374Z,92577.16
2022-11-09T03:36:20.472Z,92574.56
2022-11-09T03:38:53.554Z,92575.84
2022-11-09T03:41:26.133Z,92578.44
2022-11-09T03:43:58.510Z,92580.50
2022-11-09T03:46:30.959Z,92582.56
2022-11-09T03:49:03.401Z,92579.47
2022-11-09T03:51:35.877Z,92575.56
2022-11-09T03:54:09.225Z,92580.97
2022-11-09T03:56:41.562Z,92574.53
2022-11-09T03:59:13.957Z,92581.75
2022-11-09T04:01:46.399Z,92576.56
2022-11-09T04:04:18.904Z,92570.63
2022-11-09T04:06:51.300Z,92576.06
2022-11-09T04:09:24.409Z,92583.81
2022-11-09T04:11:56.766Z,92578.88
2022-11-09T04:14:29.174Z,92578.66
2022-11-09T04:17:01.541Z,92575.00
2022-11-09T04:19:34.195Z,92582.94
2022-11-09T04:22:06.807Z,92575.75
2022-11-09T04:24:39.917Z,92581.44
2022-11-09T04:27:12.329Z,92582.44
2022-11-09T04:29:44.777Z,92580.34
2022-11-09T04:32:17.479Z,92584.97
2022-11-09T04:34:49.849Z,92589.63
2022-11-09T04:37:22.204Z,92584.38
2022-11-09T04:39:55.231Z,92593.16
2022-11-09T04:42:27.593Z,92583.00
2022-11-09T04:44:59.974Z,92595.47
2022-11-09T04:47:32.785Z,92587.41
2022-11-09T04:50:06.524Z,92594.16
2022-11-09T04:52:39.005Z,92591.03
2022-11-09T04:55:12.052Z,92593.34
2022-11-09T04:57:44.426Z,92598.78
2022-11-09T05:00:17.049Z,92594.91
2022-11-09T05:02:49.411Z,92593.13
2022-11-09T05:05:21.790Z,92593.63
2022-11-09T05:07:54.137Z,92607.31
2022-11-09T05:10:27.265Z,92606.78
2022-11-09T05:13:01.466Z,92603.97
2022-11-09T05:15:35.005Z,92604.50
2022-11-09T05:18:08.093Z,92604.50
2022-11-09T05:20:40.501Z,92607.13
2022-11-09T05:23:31.098Z,92610.50
2022-11-09T05:26:04.248Z,92620.13
2022-11-09T05:28:36.741Z,92619.34
2022-11-09T05:31:09.123Z,92624.78
2022-11-09T05:33:41.487Z,92620.41
2022-11-09T05:36:13.852Z,92621.41
2022-11-09T05:38:46.753Z,92620.59
2022-11-09T05:41:19.801Z,92618.25
2022-11-09T05:43:52.270Z,92620.09
2022-11-09T05:46:25.587Z,92624.75
2022-11-09T05:48:57.923Z,92626.81
2022-11-09T05:51:30.282Z,92631.47
2022-11-09T05:54:02.814Z,92630.16
2022-11-09T05:56:35.897Z,92635.66
2022-11-09T05:59:08.484Z,92638.47
2022-11-09T06:01:41.165Z,92638.75
2022-11-09T06:04:13.577Z,92630.75
2022-11-09T06:06:46.116Z,92639.84
2022-11-09T06:09:18.504Z,92641.66
2022-11-09T06:11:52.051Z,92636.50
2022-11-09T06:14:24.699Z,92644.78
2022-11-09T06:16:57.078Z,92649.50
2022-11-09T06:19:29.448Z,92645.38
2022-11-09T06:22:01.898Z,92649.09
2022-11-09T06:24:35.062Z,92641.88
2022-11-09T06:27:08.273Z,92644.22
2022-11-09T06:29:40.690Z,92644.78
2022-11-09T06:32:13.075Z,92635.78
2022-11-09T06:34:47.625Z,92647.47
2022-11-09T06:37:20.005Z,92652.41
2022-11-09T06:39:52.453Z,92643.38
2022-11-09T06:42:25.650Z,92652.22
2022-11-09T06:44:58.071Z,92651.25
2022-11-09T06:47:30.472Z,92645.59
2022-11-09T06:50:02.973Z,92650.59
2022-11-09T06:52:35.439Z,92651.41
2022-11-09T06:55:09.250Z,92648.88
2022-11-09T06:57:42.319Z,92650.19
2022-11-09T07:00:16.137Z,92645.84
2022-11-09T07:02:48.636Z,92645.09
2022-11-09T07:05:21.067Z,92646.38
2022-11-09T07:07:53.496Z,92643.78
2022-11-09T07:10:25.964Z,92639.91
2022-11-09T07:12:59.160Z,92641.41
2022-11-09T07:15:31.985Z,92637.25
2022-11-09T07:18:07.315Z,92643.72
2022-11-09T07:20:39.821Z,92635.63
2022-11-09T07:23:12.224Z,92638.69
2022-11-09T07:25:44.642Z,92642.53
2022-11-09T07:28:17.778Z,92635.47
2022-11-09T07:30:52.306Z,92647.09
2022-11-09T07:33:25.209Z,92638.72
2022-11-09T07:35:58.825Z,92643.31
2022-11-09T07:38:31.682Z,92641.94
2022-11-09T07:41:04.222Z,92644.69
2022-11-09T07:43:37.314Z,92645.25
2022-11-09T07:46:10.702Z,92648.81
2022-11-09T07:48:43.086Z,92649.56
2022-11-09T07:51:15.423Z,92645.06
2022-11-09T07:53:47.847Z,92646.25
2022-11-09T07:56:20.345Z,92650.66
2022-11-09T07:58:54.093Z,92649.44
2022-11-09T08:01:26.595Z,92652.75
2022-11-09T08:03:58.922Z,92655.78
2022-11-09T08:06:31.360Z,92649.03
2022-11-09T08:09:03.877Z,92655.59
2022-11-09T08:11:36.290Z,92659.88
2022-11-09T08:14:09.883Z,92656.81
2022-11-09T08:16:42.414Z,92655.63
2022-11-09T08:19:14.980Z,92653.66
2022-11-09T08:21:47.355Z,92651.84
2022-11-09T08:24:19.733Z,92649.13
2022-11-09T08:26:52.088Z,92654.19
2022-11-09T08:29:25.120Z,92656.44
2022-11-09T08:31:57.515Z,92660.19
2022-11-09T08:34:29.921Z,92663.75
2022-11-09T08:37:04.724Z,92658.53
2022-11-09T08:39:37.110Z,92662.59
2022-11-09T08:42:09.458Z,92663.00
2022-11-09T08:44:42.687Z,92660.88
2022-11-09T08:47:15.049Z,92659.53
2022-11-09T08:49:47.723Z,92653.75
2022-11-09T08:52:20.150Z,92649.81
2022-11-09T08:54:52.537Z,92652.84
2022-11-09T08:57:25.128Z,92647.63
2022-11-09T08:59:58.287Z,92650.81
2022-11-09T09:02:30.687Z,92656.59
2022-11-09T09:05:03.403Z,92660.81
2022-11-09T09:07:35.785Z,92659.06
2022-11-09T09:10:08.574Z,92668.78
2022-11-09T09:12:40.915Z,92658.94
2022-11-09T09:15:13.979Z,92660.47
2022-11-09T09:17:46.484Z,92658.47
2022-11-09T09:20:19.008Z,92655.16
2022-11-09T09:22:51.383Z,92652.91
2022-11-09T09:25:24.074Z,92650.91
2022-11-09T09:27:56.594Z,92652.59
2022-11-09T09:30:29.638Z,92648.13
2022-11-09T09:33:02.289Z,92641.13
2022-11-09T09:35:34.708Z,92647.97
2022-11-09T09:38:07.103Z,92648.94
2022-11-09T09:40:50.661Z,92651.78
2022-11-09T09:43:28.630Z,92639.13
2022-11-09T09:46:05.913Z,92639.44
2022-11-09T09:48:43.545Z,92636.66
2022-11-09T09:51:21.662Z,92638.19
2022-11-09T09:54:01.192Z,92639.75
2022-11-09T09:56:38.564Z,92638.34
2022-11-09T09:59:19.106Z,92631.56
2022-11-09T10:01:52.614Z,92636.34
2022-11-09T10:04:32.470Z,92630.13
2022-11-09T10:07:12.594Z,92623.34
2022-11-09T10:10:00.260Z,92633.72
2022-11-09T10:12:46.958Z,92624.63
2022-11-09T10:15:25.430Z,92620.75
2022-11-09T10:18:17.870Z,92623.38
2022-11-09T10:21:06.613Z,92615.91
2022-11-09T10:23:49.155Z,92614.38
2022-11-09T10:26:27.172Z,92613.34
2022-11-09T10:29:15.700Z,92609.91
2022-11-09T10:31:51.749Z,92606.53
2022-11-09T10:34:29.181Z,92601.41
2022-11-09T10:37:09.806Z,92601.09
2022-11-09T10:39:49.122Z,92601.03
2022-11-09T10:42:44.386Z,92597.38
2022-11-09T10:45:37.125Z,92584.47
2022-11-09T10:48:33.477Z,92592.63
2022-11-09T10:51:40.122Z,92595.66
2022-11-09T10:54:34.133Z,92580.59
2022-11-09T10:57:25.556Z,92580.47
2022-11-09T11:00:18.556Z,92579.06
2022-11-09T11:03:15.666Z,92571.00
2022-11-09T11:06:14.615Z,92575.28
2022-11-09T11:09:16.180Z,92573.81
2022-11-09T11:12:14.525Z,92575.50
2022-11-09T11:15:21.322Z,92576.75
2022-11-09T11:18:22.393Z,92581.53
2022-11-09T11:21:18.816Z,92575.31
2022-11-09T11:24:17.941Z,92563.84
2022-11-09T11:27:16.065Z,92560.66
2022-11-09T11:30:11.421Z,92562.47
2022-11-09T11:33:05.590Z,92558.09
2022-11-09T11:36:04.736Z,92559.00
2022-11-09T11:39:02.348Z,92550.81
2022-11-09T11:42:10.931Z,92558.50
2022-11-09T11:45:38.965Z,92555.69
2022-11-09T11:48:54.735Z,92544.91
2022-11-09T11:51:53.936Z,92537.22
2022-11-09T11:55:01.736Z,92554.78
2022-11-09T11:58:08.191Z,92535.69
2022-11-09T12:01:12.414Z,92539.97
2022-11-09T12:04:29.470Z,92540.75
2022-11-09T12:07:27.408Z,92550.78
2022-11-09T12:10:31.637Z,92542.84
2022-11-09T12:13:55.720Z,92540.09
2022-11-09T12:16:52.718Z,92535.56
2022-11-09T12:20:03.109Z,92534.81
2022-11-09T12:23:11.041Z,92532.28
2022-11-09T12:26:16.163Z,92530.41
2022-11-09T12:29:19.048Z,92526.03
2022-11-09T12:32:20.277Z,92530.28
2022-11-09T12:35:27.314Z,92518.56
2022-11-09T12:38:21.644Z,92524.28
2022-11-09T12:41:16.490Z,92517.88
2022-11-09T12:44:17.295Z,92513.72
2022-11-09T12:47:15.154Z,92515.47
2022-11-09T12:50:11.888Z,92516.59
2022-11-09T12:53:04.713Z,92503.00
2022-11-09T12:56:00.308Z,92515.91
2022-11-09T12:58:51.573Z,92512.41
2022-11-09T13:01:50.806Z,92518.88
2022-11-09T13:04:55.109Z,92521.28
2022-11-09T13:07:49.963Z,92508.66
2022-11-09T13:10:41.319Z,92489.88
2022-11-09T13:13:32.697Z,92517.44
2022-11-09T13:16:35.390Z,92506.56
2022-11-09T13:19:53.612Z,92507.88
2022-11-09T13:22:59.879Z,92515.47
2022-11-09T13:25:52.478Z,92507.44
2022-11-09T13:29:05.897Z,92511.06
2022-11-09T13:32:23.263Z,92505.00
2022-11-09T13:35:44.077Z,92513.78
2022-11-09T13:38:36.201Z,92508.28
2022-11-09T13:41:42.407Z,92501.63
2022-11-09T13:44:37.561Z,92507.06
2022-11-09T13:47:36.505Z,92508.75
2022-11-09T13:50:29.768Z,92505.06
2022-11-09T13:53:29.717Z,92513.03
2022-11-09T13:56:31.462Z,92507.53
2022-11-09T13:59:27.201Z,92514.63
2022-11-09T14:02:20.335Z,92507.59
2022-11-09T14:05:27.258Z,92505.56
2022-11-09T14:08:22.829Z,92511.59
2022-11-09T14:11:38.610Z,92506.06
2022-11-09T14:14:51.592Z,92502.59
2022-11-09T14:17:56.129Z,92502.88
2022-11-09T14:20:54.674Z,92501.47
2022-11-09T14:23:45.768Z,92509.44
2022-11-09T14:26:37.224Z,92506.69
2022-11-09T14:29:32.216Z,92506.91
2022-11-09T14:32:26.216Z,92507.50
2022-11-09T14:35:22.922Z,92509.72
2022-11-09T14:38:18.070Z,92514.28
2022-11-09T14:41:19.878Z,92509.78
2022-11-09T14:44:17.161Z,92512.28
2022-11-09T14:47:15.426Z,92520.34
2022-11-09T14:50:14.294Z,92516.66
2022-11-09T14:53:06.150Z,92517.28
2022-11-09T14:56:02.589Z,92516.69
2022-11-09T14:58:56.269Z,92524.47
2022-11-09T15:01:59.773Z,92522.59
2022-11-09T15:04:55.852Z,92525.72
2022-11-09T15:07:48.067Z,92528.66
2022-11-09T15:10:39.321Z,92538.84
2022-11-09T15:13:32.461Z,92531.13
2022-11-09T15:16:27.649Z,92535.13
2022-11-09T15:19:23.825Z,92541.91
2022-11-09T15:22:47.838Z,92539.25
2022-11-09T15:25:53.726Z,92543.19
2022-11-09T15:28:46.700Z,92534.50
2022-11-09T15:31:37.974Z,92537.84
2022-11-09T15:34:38.605Z,92526.97
2022-11-09T15:37:46.650Z,92534.31
2022-11-09T15:40:37.348Z,92535.28
2022-11-09T15:43:28.809Z,92533.06
2022-11-09T15:46:22.993Z,92538.06
2022-11-09T15:49:16.865Z,92541.66
2022-11-09T15:52:11.446Z,92538.69
2022-11-09T15:55:02.041Z,92542.66
2022-11-09T15:57:52.777Z,92545.28
2022-11-09T16:00:44.958Z,92548.44
2022-11-09T16:03:36.002Z,92548.31
2022-11-09T16:06:27.023Z,92551.63
2022-11-09T16:09:18.631Z,92552.78
2022-11-09T16:12:10.038Z,92554.72
2022-11-09T16:15:00.665Z,92559.28
2022-11-09T16:17:52.213Z,92556.88
2022-11-09T16:20:43.045Z,92561.78
2022-11-09T16:23:33.981Z,92563.88
2022-11-09T16:26:25.685Z,92562.31
2022-11-09T16:29:16.585Z,92554.78
2022-11-09T16:32:07.667Z,92559.38
2022-11-09T16:35:23.488Z,92554.91
2022-11-09T16:38:10.562Z,92559.88
2022-11-09T16:41:03.494Z,92559.34
2022-11-09T16:43:56.715Z,92565.84
2022-11-09T16:46:48.164Z,92570.34
2022-11-09T16:49:39.049Z,92565.47
2022-11-09T16:52:29.938Z,92575.69
2022-11-09T16:55:21.029Z,92573.06
2022-11-09T16:58:12.229Z,92577.00
2022-11-09T17:01:11.484Z,92578.13
2022-11-09T17:04:03.438Z,92570.38
2022-11-09T17:06:55.106Z,92574.59
2022-11-09T17:09:46.134Z,92568.31
2022-11-09T17:12:37.182Z,92583.31
2022-11-09T17:15:28.585Z,92573.22
2022-11-09T17:18:20.529Z,92581.94
2022-11-09T17:21:13.611Z,92578.47
2022-11-09T17:24:05.699Z,92579.84
2022-11-09T17:26:56.828Z,92577.13
2022-11-09T17:29:47.935Z,92579.06
2022-11-09T17:32:40.155Z,92589.59
2022-11-09T17:35:35.817Z,92588.81
2022-11-09T17:38:28.068Z,92599.34
2022-11-09T17:41:20.935Z,92593.94
2022-11-09T17:44:11.930Z,92600.53
2022-11-09T17:47:03.959Z,92599.81
2022-11-09T17:49:54.989Z,92596.72
2022-11-09T17:52:47.027Z,92597.47
2022-11-09T17:55:38.271Z,92600.38
2022-11-09T17:58:29.736Z,92596.75
2022-11-09T18:01:21.331Z,92600.94
2022-11-09T18:04:12.797Z,92597.03
2022-11-09T18:07:04.047Z,92602.03
2022-11-09T18:09:55.996Z,92602.56
2022-11-09T18:12:48.760Z,92593.47
2022-11-09T18:15:39.947Z,92595.00
2022-11-09T18:18:31.094Z,92593.69
2022-11-09T18:21:24.161Z,92596.84
2022-11-09T18:24:15.776Z,92598.66
2022-11-09T18:27:07.590Z,92617.91
2022-11-09T18:30:01.780Z,92611.69
2022-11-09T18:32:53.106Z,92609.88
2022-11-09T18:35:44.488Z,92609.09
2022-11-09T18:38:36.160Z,92610.41
2022-11-09T18:41:28.674Z,92611.72
2022-11-09T18:44:20.693Z,92610.19
2022-11-09T18:47:15.316Z,92609.22
2022-11-09T18:50:07.053Z,92609.47
2022-11-09T18:52:58.230Z,92615.47
2022-11-09T18:55:51.265Z,92618.09
2022-11-09T18:58:42.729Z,92614.19
2022-11-09T19:01:34.917Z,92613.44
2022-11-09T19:04:26.924Z,92618.13
2022-11-09T19:07:18.872Z,92606.94
2022-11-09T19:10:10.621Z,92609.53
2022-11-09T19:13:07.537Z,92612.69
2022-11-09T19:15:58.724Z,92610.09
2022-11-09T19:18:53.517Z,92602.81
2022-11-09T19:21:47.541Z,92605.16
2022-11-09T19:24:38.795Z,92611.97
2022-11-09T19:27:31.934Z,92601.34
2022-11-09T19:30:27.968Z,92600.31
2022-11-09T19:33:20.546Z,92601.34
2022-11-09T19:36:31.199Z,92602.91
2022-11-09T19:39:22.894Z,92603.19
2022-11-09T19:42:16.851Z,92606.59
2022-11-09T19:45:11.388Z,92607.13
2022-11-09T19:48:03.659Z,92606.88
2022-11-09T19:50:55.443Z,92613.38
2022-11-09T19:53:52.038Z,92619.88
2022-11-09T19:56:43.206Z,92620.41
2022-11-09T19:59:37.712Z,92623.00
2022-11-09T20:02:31.208Z,92623.78
2022-11-09T20:05:22.288Z,92634.44
2022-11-09T20:08:14.829Z,92633.13
2022-11-09T20:11:08.775Z,92633.16
2022-11-09T20:14:02.274Z,92631.59
2022-11-09T20:16:53.306Z,92631.06
2022-11-09T20:19:44.311Z,92632.66
2022-11-09T20:22:37.921Z,92641.72
2022-11-09T20:25:29.216Z,92633.41
2022-11-09T20:28:21.443Z,92638.88
2022-11-09T20:31:15.552Z,92639.63
2022-11-09T20:34:08.140Z,92636.78
2022-11-09T20:36:59.300Z,92640.16
2022-11-09T20:39:50.185Z,92638.59
2022-11-09T20:42:41.948Z,92626.66
2022-11-09T20:45:36.633Z,92634.44
2022-11-09T20:48:52.234Z,92629.75
2022-11-09T20:51:39.073Z,92631.03
2022-11-09T20:54:29.894Z,92626.38
2022-11-09T20:57:21.198Z,92624.56
2022-11-09T21:00:13.255Z,92620.16
2022-11-09T21:03:05.379Z,92620.66
2022-11-09T21:05:59.296Z,92631.28
2022-11-09T21:08:52.346Z,92624.56
2022-11-09T21:11:57.726Z,92628.69
2022-11-09T21:14:48.666Z,92621.97
2022-11-09T21:17:40.530Z,92633.88
2022-11-09T21:20:32.760Z,92626.84
2022-11-09T21:23:41.590Z,92625.56
2022-11-09T21:26:50.877Z,92630.22
2022-11-09T21:29:50.765Z,92628.41
2022-11-09T21:32:41.854Z,92627.63
2022-11-09T21:35:33.626Z,92631.53
2022-11-09T21:38:24.810Z,92628.16
2022-11-09T21:41:36.938Z,92633.59
2022-11-09T21:44:29.078Z,92637.72
2022-11-09T21:47:20.211Z,92637.19
2022-11-09T21:50:12.774Z,92632.00
2022-11-09T21:53:11.287Z,92627.03
2022-11-09T21:56:02.326Z,92633.81
2022-11-09T21:58:53.576Z,92636.66
2022-11-09T22:01:44.789Z,92641.03
2022-11-09T22:04:35.948Z,92630.38
2022-11-09T22:07:27.071Z,92636.59
2022-11-09T22:10:18.972Z,92640.97
2022-11-09T22:13:31.146Z,92637.59
2022-11-09T22:16:23.460Z,92640.94
2022-11-09T22:19:32.521Z,92637.06
2022-11-09T22:22:23.752Z,92637.28
2022-11-09T22:25:14.993Z,92634.16
2022-11-09T22:28:06.705Z,92645.25
2022-11-09T22:31:00.185Z,92641.59
2022-11-09T22:33:51.831Z,92638.19
2022-11-09T22:36:42.805Z,92638.19
2022-11-09T22:39:33.909Z,92641.06
2022-11-09T22:42:24.913Z,92636.41
2022-11-09T22:45:16.667Z,92636.88
2022-11-09T22:48:07.481Z,92642.84
2022-11-09T22:50:58.624Z,92636.88
2022-11-09T22:53:50.604Z,92631.41
2022-11-09T22:56:41.486Z,92630.63
2022-11-09T22:59:32.321Z,92632.97
2022-11-09T23:02:24.143Z,92637.09
2022-11-09T23:05:15.806Z,92636.03
2022-11-09T23:08:07.121Z,92636.00
2022-11-09T23:10:58.239Z,92634.94
2022-11-09T23:13:49.818Z,92633.38
2022-11-09T23:16:40.533Z,92641.63
2022-11-09T23:19:31.723Z,92639.53
2022-11-09T23:22:22.781Z,92639.00
2022-11-09T23:25:32.312Z,92636.44
2022-11-09T23:28:23.062Z,92638.50
2022-11-09T23:31:15.387Z,92638.97
2022-11-09T23:34:10.246Z,92641.03
2022-11-09T23:37:02.210Z,92641.53
2022-11-09T23:39:53.435Z,92636.34
2022-11-09T23:42:44.514Z,92643.06
2022-11-09T23:45:36.963Z,92640.16
2022-11-09T23:48:28.067Z,92640.44
2022-11-09T23:51:19.087Z,92637.06
2022-11-09T23:54:10.742Z,92632.34
2022-11-09T23:57:01.819Z,92630.81
2022-11-09T23:59:52.650Z,92631.75
